Time;durP1;ratioP1;P1;durP2;ratioP2;P2;SDS_P1;SDS_P2;PMS_P1;PMS_P2;Temp;Humidity;BMP_temperature;BMP_pressure;BME280_temperature;BME280_humidity;BME280_pressure;Samples;Min_cycle;Max_cycle;Signal;HPM_P1;HPM_P2
2022/01/29 00:00:43;;;;;;;39.08;10.63;;;8.10;99.90;;;;;;5033815;28;20052;-75
2022/01/29 00:03:10;;;;;;;28.08;10.10;;;8.10;99.90;;;;;;5033854;28;20113;-75
2022/01/29 00:05:35;;;;;;;32.15;10.57;;;8.10;99.90;;;;;;5015848;28;20075;-76
2022/01/29 00:08:02;;;;;;;31.95;9.68;;;8.10;99.90;;;;;;5033403;28;20101;-75
2022/01/29 00:10:28;;;;;;;31.25;10.05;;;8.10;99.90;;;;;;5034093;28;20499;-75
2022/01/29 00:12:54;;;;;;;29.20;9.05;;;8.10;99.90;;;;;;5033699;28;20227;-75
2022/01/29 00:15:20;;;;;;;29.65;8.95;;;8.10;99.90;;;;;;5033325;28;20028;-76
2022/01/29 00:17:46;;;;;;;31.90;8.90;;;8.10;99.90;;;;;;5033371;28;20489;-75
2022/01/29 00:20:11;;;;;;;29.63;8.80;;;8.10;99.90;;;;;;5033351;28;20053;-75
2022/01/29 00:22:37;;;;;;;32.05;8.43;;;8.20;99.90;;;;;;5033383;28;20044;-75
2022/01/29 00:25:03;;;;;;;22.17;8.70;;;8.20;99.90;;;;;;5033981;28;20454;-75
2022/01/29 00:27:33;;;;;;;27.40;8.60;;;8.20;99.90;;;;;;5032881;28;20028;-76
2022/01/29 00:30:02;;;;;;;30.77;9.00;;;8.20;99.90;;;;;;5033335;28;20115;-76
2022/01/29 00:32:29;;;;;;;34.03;9.35;;;8.20;99.90;;;;;;5033641;28;20061;-76
2022/01/29 00:34:54;;;;;;;33.35;8.85;;;8.20;99.90;;;;;;5033970;28;20026;-75
2022/01/29 00:37:20;;;;;;;30.80;9.80;;;8.20;99.90;;;;;;5033924;28;20026;-75
2022/01/29 00:39:46;;;;;;;31.20;9.98;;;8.30;99.90;;;;;;5034367;28;20335;-75
2022/01/29 00:42:11;;;;;;;31.45;9.32;;;8.30;99.90;;;;;;5034779;28;20021;-75
2022/01/29 00:44:37;;;;;;;28.65;10.00;;;8.30;99.90;;;;;;5035632;28;20025;-75
2022/01/29 00:47:02;;;;;;;30.23;9.20;;;8.30;99.90;;;;;;5035200;28;20098;-76
2022/01/29 00:49:28;;;;;;;37.00;9.20;;;8.30;99.90;;;;;;5035213;28;20036;-75
2022/01/29 00:51:54;;;;;;;29.92;9.52;;;8.30;99.90;;;;;;5034022;28;20399;-75
2022/01/29 00:54:19;;;;;;;28.63;9.00;;;8.30;99.90;;;;;;5033406;28;20406;-75
2022/01/29 00:56:45;;;;;;;29.00;9.52;;;8.30;99.90;;;;;;5033358;28;20057;-75
2022/01/29 00:59:10;;;;;;;24.98;9.50;;;8.30;99.90;;;;;;5033556;28;20116;-75
2022/01/29 01:01:36;;;;;;;31.55;9.02;;;8.20;99.90;;;;;;5033178;28;20056;-75
2022/01/29 01:04:01;;;;;;;23.70;9.30;;;8.20;99.90;;;;;;5032971;28;20025;-76
2022/01/29 01:06:27;;;;;;;23.77;8.73;;;8.20;99.90;;;;;;5032921;28;20053;-75
2022/01/29 01:08:53;;;;;;;23.48;9.18;;;8.20;99.90;;;;;;5032863;28;20076;-76
2022/01/29 01:11:18;;;;;;;21.10;9.38;;;8.20;99.90;;;;;;5032731;28;20026;-76
2022/01/29 01:13:44;;;;;;;26.45;9.13;;;8.20;99.90;;;;;;5032895;28;20077;-76
2022/01/29 01:16:09;;;;;;;22.38;9.77;;;8.20;99.90;;;;;;5033335;28;20452;-75
2022/01/29 01:18:35;;;;;;;23.85;10.32;;;8.20;99.90;;;;;;5032672;28;20367;-76
2022/01/29 01:21:00;;;;;;;27.95;11.07;;;8.20;99.90;;;;;;5033048;28;20029;-76
2022/01/29 01:23:26;;;;;;;22.75;10.25;;;8.20;99.90;;;;;;5033350;28;20087;-75
2022/01/29 01:25:52;;;;;;;22.98;10.90;;;8.20;99.90;;;;;;5032657;28;20024;-76
2022/01/29 01:28:17;;;;;;;24.33;11.07;;;8.20;99.90;;;;;;5032056;28;20043;-75
2022/01/29 01:30:43;;;;;;;29.65;11.77;;;8.20;99.90;;;;;;5032831;28;20155;-76
2022/01/29 01:33:08;;;;;;;29.35;12.23;;;8.20;99.90;;;;;;5032455;28;20033;-76
2022/01/29 01:35:41;;;;;;;27.05;11.98;;;8.20;99.90;;;;;;5014388;28;20566;-75
2022/01/29 01:38:15;;;;;;;32.28;12.45;;;8.30;99.90;;;;;;5031061;28;20025;-76
2022/01/29 01:40:47;;;;;;;31.97;14.00;;;8.20;99.90;;;;;;5032150;28;20031;-76
2022/01/29 01:43:12;;;;;;;34.92;14.07;;;8.30;99.90;;;;;;5032459;28;20371;-75
2022/01/29 01:45:38;;;;;;;33.58;12.75;;;8.30;99.90;;;;;;5032315;28;20049;-76
2022/01/29 01:48:06;;;;;;;32.33;12.70;;;8.30;99.90;;;;;;5032239;28;20475;-76
2022/01/29 01:50:35;;;;;;;40.83;13.45;;;8.30;99.90;;;;;;5032089;28;20026;-76
2022/01/29 01:53:02;;;;;;;37.13;13.02;;;8.30;99.90;;;;;;5031319;28;20033;-76
2022/01/29 01:55:28;;;;;;;31.73;13.02;;;8.40;99.90;;;;;;5031287;28;20026;-75
2022/01/29 01:57:54;;;;;;;36.15;11.82;;;8.40;99.90;;;;;;5013730;28;20059;-76
2022/01/29 02:00:20;;;;;;;38.58;11.82;;;8.40;99.90;;;;;;5031194;28;20033;-75
2022/01/29 02:02:46;;;;;;;31.35;11.00;;;8.40;99.90;;;;;;5031738;28;20129;-75
2022/01/29 02:05:12;;;;;;;22.73;10.10;;;8.40;99.90;;;;;;5031659;28;20416;-75
2022/01/29 02:07:38;;;;;;;31.27;10.23;;;8.40;99.90;;;;;;5020464;28;20622;-76
2022/01/29 02:10:09;;;;;;;29.17;10.25;;;8.40;99.90;;;;;;5011059;28;20105;-76
2022/01/29 02:13:05;;;;;;;32.35;10.35;;;8.50;99.90;;;;;;5012412;28;20123;-76
2022/01/29 02:15:31;;;;;;;26.73;9.27;;;8.50;99.90;;;;;;4999486;28;20083;-75
2022/01/29 02:17:58;;;;;;;28.08;9.65;;;8.40;99.90;;;;;;5011597;28;20084;-76
2022/01/29 02:20:29;;;;;;;31.10;9.43;;;8.50;99.90;;;;;;5011641;28;20475;-76
2022/01/29 02:22:55;;;;;;;26.52;9.65;;;8.50;99.90;;;;;;5012136;28;20030;-75
2022/01/29 02:25:33;;;;;;;34.88;9.48;;;8.50;99.90;;;;;;5012012;28;20373;-76
2022/01/29 02:28:02;;;;;;;34.40;9.07;;;8.50;99.90;;;;;;5011272;28;20135;-75
2022/01/29 02:30:30;;;;;;;34.55;8.55;;;8.50;99.90;;;;;;5011762;28;20369;-76
2022/01/29 02:32:57;;;;;;;31.38;8.90;;;8.50;99.90;;;;;;5011981;28;20021;-75
2022/01/29 02:35:23;;;;;;;30.27;9.43;;;8.60;99.90;;;;;;4993881;28;20025;-75
2022/01/29 02:37:51;;;;;;;27.10;8.73;;;8.60;99.90;;;;;;5012112;28;20411;-76
2022/01/29 02:40:24;;;;;;;28.23;8.73;;;8.60;99.90;;;;;;5011633;28;20088;-75
2022/01/29 02:42:52;;;;;;;29.58;8.25;;;8.60;99.90;;;;;;5012026;28;20018;-76
2022/01/29 02:45:18;;;;;;;30.33;8.23;;;8.60;99.90;;;;;;5011329;28;20033;-76
2022/01/29 02:47:44;;;;;;;27.77;8.50;;;8.60;99.90;;;;;;5012746;28;20082;-76
2022/01/29 02:50:10;;;;;;;30.83;8.75;;;8.60;99.90;;;;;;5012238;28;20030;-75
2022/01/29 02:52:35;;;;;;;25.55;8.52;;;8.60;99.90;;;;;;5011811;28;20029;-76
2022/01/29 02:55:02;;;;;;;28.33;8.98;;;8.60;99.90;;;;;;5011255;28;20092;-76
2022/01/29 02:57:28;;;;;;;33.95;9.52;;;8.60;99.90;;;;;;5016972;28;20034;-75
2022/01/29 02:59:57;;;;;;;22.75;9.18;;;8.60;99.90;;;;;;5031438;28;20087;-76
2022/01/29 03:02:23;;;;;;;27.27;8.70;;;8.70;99.90;;;;;;5030774;28;20041;-76
2022/01/29 03:04:49;;;;;;;29.15;9.10;;;8.70;99.90;;;;;;5030938;28;20032;-75
2022/01/29 03:07:14;;;;;;;27.55;8.68;;;8.70;99.90;;;;;;5031029;28;20430;-76
2022/01/29 03:09:40;;;;;;;28.33;8.65;;;8.70;99.90;;;;;;5031003;28;20056;-76
2022/01/29 03:12:06;;;;;;;31.48;9.13;;;8.70;99.90;;;;;;5013073;28;20037;-75
2022/01/29 03:14:32;;;;;;;27.13;8.27;;;8.70;99.90;;;;;;5031527;28;20450;-76
2022/01/29 03:16:57;;;;;;;39.60;8.68;;;8.70;99.90;;;;;;5031196;28;20028;-76
2022/01/29 03:19:23;;;;;;;26.13;8.43;;;8.70;99.90;;;;;;5031981;28;20524;-76
2022/01/29 03:21:48;;;;;;;25.35;7.80;;;8.70;99.90;;;;;;5035184;28;20348;-76
2022/01/29 03:24:14;;;;;;;25.92;8.05;;;8.70;99.90;;;;;;5034879;28;20018;-76
2022/01/29 03:26:39;;;;;;;21.00;7.53;;;8.80;99.90;;;;;;5035038;28;20033;-76
2022/01/29 03:29:05;;;;;;;25.05;7.72;;;8.80;99.90;;;;;;5034636;28;20049;-76
2022/01/29 03:31:30;;;;;;;29.23;8.07;;;8.80;99.90;;;;;;5034588;28;20363;-77
2022/01/29 03:33:56;;;;;;;28.33;7.95;;;8.80;99.90;;;;;;5034915;28;20057;-76
2022/01/29 03:36:22;;;;;;;30.77;7.93;;;8.80;99.90;;;;;;5034904;28;20036;-76
2022/01/29 03:38:47;;;;;;;24.77;8.05;;;8.80;99.90;;;;;;5034901;28;20090;-76
2022/01/29 03:41:13;;;;;;;28.33;7.72;;;8.80;99.90;;;;;;5034358;28;20021;-76
2022/01/29 03:43:45;;;;;;;30.48;7.78;;;8.80;99.90;;;;;;5034568;28;20092;-76
2022/01/29 03:46:11;;;;;;;24.55;7.57;;;8.80;99.90;;;;;;5034689;28;20053;-76
2022/01/29 03:48:37;;;;;;;22.35;7.68;;;8.80;99.90;;;;;;5034324;28;20022;-76
2022/01/29 03:51:02;;;;;;;22.60;6.70;;;8.80;99.90;;;;;;5034504;28;20056;-76
2022/01/29 03:53:28;;;;;;;25.42;6.80;;;8.80;99.90;;;;;;5034205;28;20029;-76
2022/01/29 03:55:53;;;;;;;21.67;7.13;;;8.90;99.90;;;;;;5036315;28;20025;-76
2022/01/29 03:58:19;;;;;;;27.77;7.15;;;8.90;99.90;;;;;;5036470;28;20041;-75
2022/01/29 04:00:44;;;;;;;24.88;7.15;;;8.90;99.90;;;;;;5035511;28;20049;-76
2022/01/29 04:03:10;;;;;;;29.85;7.15;;;8.90;99.90;;;;;;5036163;28;20064;-76
2022/01/29 04:05:36;;;;;;;21.20;6.50;;;8.90;99.90;;;;;;5034392;28;20112;-76
2022/01/29 04:08:06;;;;;;;24.90;6.85;;;8.90;99.90;;;;;;5033448;28;20022;-75
2022/01/29 04:10:32;;;;;;;22.73;6.10;;;8.90;99.90;;;;;;5033874;28;20141;-76
2022/01/29 04:12:58;;;;;;;25.63;6.93;;;9.00;99.90;;;;;;5034111;28;20056;-76
2022/01/29 04:15:23;;;;;;;25.95;6.40;;;9.00;99.90;;;;;;5033223;28;20127;-76
2022/01/29 04:17:49;;;;;;;24.70;6.28;;;9.00;99.90;;;;;;5033892;28;20072;-76
2022/01/29 04:20:14;;;;;;;26.58;6.65;;;9.00;99.90;;;;;;5033651;28;20021;-76
2022/01/29 04:22:40;;;;;;;22.33;6.60;;;9.00;99.90;;;;;;5034189;28;20045;-76
2022/01/29 04:25:06;;;;;;;26.40;6.72;;;9.00;99.90;;;;;;5033546;28;20029;-75
2022/01/29 04:27:37;;;;;;;23.65;6.60;;;9.00;99.90;;;;;;5032917;28;20483;-75
2022/01/29 04:30:09;;;;;;;26.85;6.65;;;9.00;99.90;;;;;;5032760;28;20056;-75
2022/01/29 04:35:13;;;;;;;21.67;6.70;;;9.00;99.90;;;;;;5033660;28;20067;-76
2022/01/29 04:37:38;;;;;;;24.50;6.43;;;9.00;99.90;;;;;;5033799;28;20022;-76
2022/01/29 04:40:05;;;;;;;26.23;7.43;;;9.00;99.90;;;;;;5033338;28;20546;-76
2022/01/29 04:42:30;;;;;;;22.55;6.28;;;9.00;99.90;;;;;;5033202;28;20134;-76
2022/01/29 04:44:56;;;;;;;24.52;6.72;;;9.00;99.90;;;;;;5033282;28;20104;-76
2022/01/29 04:47:22;;;;;;;17.73;6.57;;;9.00;99.90;;;;;;5033035;28;20442;-76
2022/01/29 04:49:47;;;;;;;22.17;7.28;;;9.00;99.90;;;;;;5033280;28;20029;-75
2022/01/29 04:52:13;;;;;;;20.20;7.30;;;9.00;99.90;;;;;;5032608;28;20025;-76
2022/01/29 04:54:38;;;;;;;16.42;6.30;;;9.00;99.90;;;;;;5032479;28;20055;-76
2022/01/29 04:57:04;;;;;;;24.02;6.60;;;9.00;99.90;;;;;;5032629;28;20084;-76
2022/01/29 04:59:29;;;;;;;18.25;5.75;;;9.10;99.90;;;;;;5032655;28;20025;-76
2022/01/29 05:01:55;;;;;;;23.98;5.82;;;9.00;99.90;;;;;;5032135;28;20121;-76
2022/01/29 05:04:21;;;;;;;16.40;5.68;;;9.10;99.90;;;;;;5015164;28;20052;-75
2022/01/29 05:06:46;;;;;;;20.45;5.25;;;9.00;99.90;;;;;;5035034;28;20022;-76
2022/01/29 05:09:12;;;;;;;20.30;5.47;;;9.00;99.90;;;;;;5032552;28;20105;-76
2022/01/29 05:11:38;;;;;;;23.00;5.47;;;9.00;99.90;;;;;;5033963;28;20345;-76
2022/01/29 05:14:07;;;;;;;27.63;6.80;;;9.00;99.90;;;;;;5033888;28;20476;-75
2022/01/29 05:27:16;;;;;;;21.17;6.30;;;9.10;99.90;;;;;;5033231;28;20537;-76
2022/01/29 05:29:42;;;;;;;23.45;5.70;;;9.10;99.90;;;;;;5032769;28;20041;-76
2022/01/29 05:32:09;;;;;;;22.50;6.07;;;9.10;99.90;;;;;;5032011;28;20342;-75
2022/01/29 05:34:35;;;;;;;30.52;6.50;;;9.10;99.90;;;;;;5032033;28;20025;-76
2022/01/29 05:37:02;;;;;;;20.10;6.07;;;9.10;99.90;;;;;;5032122;28;20030;-76
2022/01/29 05:39:28;;;;;;;25.25;6.35;;;9.10;99.90;;;;;;5031936;28;20044;-76
2022/01/29 05:41:54;;;;;;;20.90;5.95;;;9.10;99.90;;;;;;5030840;28;20037;-76
2022/01/29 05:44:20;;;;;;;22.38;6.20;;;9.10;99.90;;;;;;5031918;28;20026;-76
2022/01/29 05:46:45;;;;;;;22.45;5.78;;;9.10;99.90;;;;;;5031475;28;20029;-76
2022/01/29 05:49:11;;;;;;;18.67;5.63;;;9.10;99.90;;;;;;5031945;28;20041;-76
2022/01/29 05:51:37;;;;;;;23.17;5.95;;;9.10;99.90;;;;;;5031538;28;20025;-76
2022/01/29 05:54:03;;;;;;;25.67;5.90;;;9.20;99.90;;;;;;5031602;28;20399;-76
2022/01/29 05:56:29;;;;;;;20.08;6.15;;;9.20;99.90;;;;;;5031306;28;20021;-76
2022/01/29 05:58:55;;;;;;;20.73;5.88;;;9.20;99.90;;;;;;5032271;28;20030;-76
2022/01/29 06:01:21;;;;;;;21.10;5.82;;;9.20;99.90;;;;;;5032039;28;20088;-76
2022/01/29 06:03:47;;;;;;;18.98;5.68;;;9.30;99.90;;;;;;5033205;28;20060;-76
2022/01/29 06:06:13;;;;;;;23.35;5.88;;;9.30;99.90;;;;;;5032811;28;20029;-76
2022/01/29 06:08:39;;;;;;;19.45;5.53;;;9.30;99.90;;;;;;5032020;28;20026;-76
2022/01/29 06:11:05;;;;;;;19.75;5.57;;;9.30;99.90;;;;;;5032479;28;20037;-76
2022/01/29 06:13:30;;;;;;;22.58;5.03;;;9.30;99.90;;;;;;5031114;28;20029;-76
2022/01/29 06:15:56;;;;;;;25.45;5.97;;;9.30;99.90;;;;;;5031380;28;20091;-76
2022/01/29 06:18:23;;;;;;;17.13;4.90;;;9.30;99.90;;;;;;5031321;28;20025;-76
2022/01/29 06:20:51;;;;;;;18.83;4.72;;;9.40;99.90;;;;;;5031271;28;20064;-76
2022/01/29 06:23:24;;;;;;;29.65;5.35;;;9.40;99.90;;;;;;5031244;28;20026;-76
2022/01/29 06:25:50;;;;;;;22.33;4.82;;;9.40;99.90;;;;;;5031369;28;20025;-76
2022/01/29 06:28:15;;;;;;;20.98;4.85;;;9.40;99.90;;;;;;5031804;28;20032;-76
2022/01/29 06:30:41;;;;;;;20.73;5.10;;;9.40;99.90;;;;;;5031964;28;20045;-76
2022/01/29 06:33:08;;;;;;;21.40;4.78;;;9.40;99.90;;;;;;5031676;28;20018;-76
2022/01/29 06:35:35;;;;;;;16.02;4.95;;;9.40;99.90;;;;;;5032143;28;20033;-76
2022/01/29 06:38:00;;;;;;;19.20;4.53;;;9.40;99.90;;;;;;5031228;28;20033;-76
2022/01/29 06:40:26;;;;;;;19.17;4.93;;;9.40;99.90;;;;;;5030671;28;20034;-76
2022/01/29 06:42:52;;;;;;;20.02;4.97;;;9.40;99.90;;;;;;5030902;28;20380;-76
2022/01/29 06:45:17;;;;;;;21.08;5.00;;;9.40;99.90;;;;;;5031276;28;20030;-76
2022/01/29 06:47:43;;;;;;;24.70;4.43;;;9.40;99.90;;;;;;5031404;28;20440;-75
2022/01/29 06:50:09;;;;;;;16.70;4.88;;;9.40;99.90;;;;;;5031303;28;20025;-76
2022/01/29 06:52:34;;;;;;;17.30;4.22;;;9.50;99.90;;;;;;5030713;28;20037;-76
2022/01/29 06:55:00;;;;;;;20.88;4.88;;;9.50;99.90;;;;;;5031214;28;20386;-76
2022/01/29 06:57:25;;;;;;;14.05;3.85;;;9.50;99.90;;;;;;5030736;28;20168;-76
2022/01/29 06:59:51;;;;;;;20.55;4.45;;;9.50;99.90;;;;;;5030629;28;20079;-76
2022/01/29 07:02:17;;;;;;;21.77;4.45;;;9.50;99.90;;;;;;5030448;28;20407;-76
2022/01/29 07:04:42;;;;;;;16.13;3.67;;;9.50;99.90;;;;;;5030569;28;20415;-76
2022/01/29 07:07:08;;;;;;;21.33;3.88;;;9.50;99.90;;;;;;5030839;28;20025;-76
2022/01/29 07:09:33;;;;;;;17.63;3.90;;;9.50;99.90;;;;;;5030253;28;20021;-76
2022/01/29 07:12:08;;;;;;;14.32;3.97;;;9.50;99.90;;;;;;5031103;28;20033;-76
2022/01/29 07:14:37;;;;;;;22.48;4.97;;;9.50;99.90;;;;;;5031117;28;20026;-76
2022/01/29 07:17:04;;;;;;;17.48;4.00;;;9.50;99.90;;;;;;5037360;28;20483;-76
2022/01/29 07:19:29;;;;;;;16.70;4.38;;;9.50;99.90;;;;;;5043251;28;20115;-75
2022/01/29 07:21:55;;;;;;;16.35;4.07;;;9.50;99.90;;;;;;5030008;28;20140;-77
2022/01/29 07:24:20;;;;;;;19.75;4.72;;;9.50;99.90;;;;;;5040314;28;20421;-76
2022/01/29 07:26:46;;;;;;;19.02;4.47;;;9.60;99.90;;;;;;5042858;28;20078;-77
2022/01/29 07:29:12;;;;;;;30.95;5.20;;;9.50;99.90;;;;;;5038642;28;20037;-76
2022/01/29 07:31:39;;;;;;;17.90;4.13;;;9.50;99.90;;;;;;5042582;28;20028;-76
2022/01/29 07:34:04;;;;;;;24.02;4.50;;;9.50;99.90;;;;;;5041065;28;20021;-76
2022/01/29 07:36:30;;;;;;;18.52;4.47;;;9.50;99.90;;;;;;5036714;28;20155;-75
2022/01/29 07:38:55;;;;;;;19.92;4.78;;;9.50;99.90;;;;;;5036111;28;20033;-75
2022/01/29 07:41:21;;;;;;;18.67;3.92;;;9.50;99.90;;;;;;5039768;28;20021;-75
2022/01/29 07:43:47;;;;;;;16.15;4.55;;;9.50;99.90;;;;;;5037016;28;20025;-76
2022/01/29 07:46:12;;;;;;;17.10;3.95;;;9.50;99.90;;;;;;5044518;28;20052;-75
2022/01/29 07:48:38;;;;;;;21.52;4.28;;;9.50;99.90;;;;;;5044625;28;20017;-76
2022/01/29 07:51:03;;;;;;;19.38;4.38;;;9.50;99.90;;;;;;5011131;28;20673;-76
2022/01/29 07:53:29;;;;;;;21.02;4.30;;;9.50;99.90;;;;;;5035418;28;20356;-76
2022/01/29 07:55:55;;;;;;;21.95;4.55;;;9.50;99.90;;;;;;5036728;28;20021;-75
2022/01/29 07:58:20;;;;;;;25.35;4.43;;;9.60;99.90;;;;;;5036535;28;20148;-76
2022/01/29 08:00:48;;;;;;;19.23;4.47;;;9.60;99.90;;;;;;5036792;28;20049;-76
2022/01/29 08:03:13;;;;;;;17.27;3.97;;;9.60;99.90;;;;;;5036808;28;20031;-75
2022/01/29 08:05:39;;;;;;;21.05;4.78;;;9.60;99.90;;;;;;5034362;28;20022;-75
2022/01/29 08:08:05;;;;;;;15.60;4.60;;;9.60;99.90;;;;;;5039906;28;20043;-76
2022/01/29 08:10:31;;;;;;;21.52;4.47;;;9.70;99.90;;;;;;5042269;28;20021;-76
2022/01/29 08:12:57;;;;;;;26.02;4.45;;;9.70;99.90;;;;;;5036082;28;20030;-75
2022/01/29 08:15:23;;;;;;;19.92;4.32;;;9.70;99.90;;;;;;5040206;28;20033;-76
2022/01/29 08:17:48;;;;;;;24.75;4.20;;;9.70;99.90;;;;;;5036621;28;20018;-76
2022/01/29 08:20:14;;;;;;;16.58;4.00;;;9.80;99.90;;;;;;5038242;28;20040;-75
2022/01/29 08:22:39;;;;;;;22.23;3.97;;;9.80;99.90;;;;;;5035352;28;20064;-76
2022/01/29 08:25:05;;;;;;;16.85;3.85;;;9.80;99.90;;;;;;5051387;28;20105;-75
2022/01/29 08:27:31;;;;;;;16.80;3.85;;;9.80;99.90;;;;;;5051563;28;20017;-76
2022/01/29 08:29:56;;;;;;;21.05;3.53;;;9.80;99.90;;;;;;5039615;28;20175;-76
2022/01/29 08:32:22;;;;;;;16.70;3.92;;;9.80;99.90;;;;;;5032490;28;20052;-76
2022/01/29 08:34:48;;;;;;;19.98;3.50;;;9.80;99.90;;;;;;5030924;28;20030;-76
2022/01/29 08:37:14;;;;;;;16.38;3.63;;;9.80;99.90;;;;;;5029078;28;20029;-76
2022/01/29 08:39:40;;;;;;;17.80;3.47;;;9.80;99.90;;;;;;5031930;28;20029;-76
2022/01/29 08:42:07;;;;;;;15.27;3.17;;;9.80;99.90;;;;;;5037787;28;20433;-76
2022/01/29 08:44:32;;;;;;;16.88;3.50;;;9.80;99.90;;;;;;5051628;28;20051;-76
2022/01/29 08:46:58;;;;;;;18.45;3.75;;;9.80;99.90;;;;;;5047296;28;20031;-76
2022/01/29 08:49:25;;;;;;;14.60;3.42;;;9.80;99.90;;;;;;5031410;28;20164;-76
2022/01/29 08:51:51;;;;;;;21.52;3.55;;;9.80;99.90;;;;;;5031998;28;20044;-76
2022/01/29 08:54:17;;;;;;;16.40;3.42;;;9.80;99.90;;;;;;5031875;28;20404;-76
2022/01/29 08:56:43;;;;;;;16.40;3.38;;;9.80;99.90;;;;;;5031359;28;20018;-76
2022/01/29 08:59:09;;;;;;;19.38;3.78;;;9.80;99.90;;;;;;5030651;28;20565;-77
2022/01/29 09:01:34;;;;;;;14.95;3.58;;;9.80;99.90;;;;;;5039669;28;20116;-77
2022/01/29 09:04:00;;;;;;;18.98;3.10;;;9.90;99.90;;;;;;5050030;28;20029;-76
2022/01/29 09:06:26;;;;;;;14.00;3.20;;;9.80;99.90;;;;;;5049874;28;20052;-76
2022/01/29 09:08:52;;;;;;;16.55;2.60;;;9.80;99.90;;;;;;5049726;28;20044;-76
2022/01/29 09:11:19;;;;;;;18.55;3.33;;;9.90;99.90;;;;;;5049297;28;20106;-77
2022/01/29 09:13:45;;;;;;;19.02;3.50;;;9.80;99.90;;;;;;5047236;28;20475;-77
2022/01/29 09:16:11;;;;;;;20.83;3.17;;;9.90;99.90;;;;;;5049948;28;20159;-77
2022/01/29 09:18:37;;;;;;;19.98;3.47;;;9.90;99.90;;;;;;5050732;28;20104;-76
2022/01/29 09:21:03;;;;;;;17.15;3.30;;;9.90;99.90;;;;;;5049749;28;20417;-76
2022/01/29 09:23:29;;;;;;;18.63;3.05;;;9.90;99.90;;;;;;5050020;28;20385;-77
2022/01/29 09:25:55;;;;;;;25.73;4.20;;;9.90;99.90;;;;;;5051262;28;20025;-76
2022/01/29 09:28:22;;;;;;;19.38;3.80;;;10.00;99.90;;;;;;5046217;28;20028;-77
2022/01/29 09:30:49;;;;;;;25.67;3.75;;;10.00;99.90;;;;;;5021734;28;20052;-76
2022/01/29 09:33:15;;;;;;;22.55;3.53;;;10.00;99.90;;;;;;5037676;28;20025;-76
2022/01/29 09:35:42;;;;;;;19.42;3.45;;;10.00;99.90;;;;;;5051321;28;20032;-77
2022/01/29 09:38:09;;;;;;;17.52;3.20;;;10.10;99.90;;;;;;5051058;28;20409;-77
2022/01/29 09:40:36;;;;;;;18.08;3.00;;;10.10;99.90;;;;;;5050470;28;20045;-76
2022/01/29 09:43:03;;;;;;;22.70;3.33;;;10.10;99.90;;;;;;5050138;28;20082;-76
2022/01/29 09:45:29;;;;;;;20.10;2.90;;;10.20;99.90;;;;;;5048083;28;20478;-76
2022/01/29 09:48:01;;;;;;;19.83;3.05;;;10.30;99.90;;;;;;5022201;28;20018;-76
2022/01/29 09:50:31;;;;;;;19.00;3.00;;;10.30;99.90;;;;;;5044969;28;20040;-76
2022/01/29 09:52:59;;;;;;;16.35;2.78;;;10.40;99.90;;;;;;5035463;28;20086;-76
2022/01/29 09:55:26;;;;;;;17.73;2.90;;;10.50;99.90;;;;;;5051056;28;20107;-77
2022/01/29 09:57:54;;;;;;;16.35;2.70;;;10.50;99.90;;;;;;5051955;28;20167;-77
2022/01/29 10:00:20;;;;;;;15.48;2.80;;;10.60;99.90;;;;;;5050666;28;20024;-76
2022/01/29 10:03:11;;;;;;;19.42;2.95;;;10.60;99.90;;;;;;5049462;28;20083;-76
2022/01/29 10:05:37;;;;;;;15.90;3.50;;;10.80;99.90;;;;;;5049950;28;20493;-77
2022/01/29 10:08:04;;;;;;;20.13;3.75;;;10.80;99.90;;;;;;5050586;28;20567;-76
2022/01/29 10:10:36;;;;;;;13.68;2.50;;;10.80;99.90;;;;;;5050580;28;20474;-76
2022/01/29 10:13:28;;;;;;;18.15;2.72;;;10.90;99.90;;;;;;5050791;28;20154;-77
2022/01/29 10:16:12;;;;;;;17.10;2.90;;;11.00;99.90;;;;;;5051302;28;20398;-77
2022/01/29 10:18:40;;;;;;;17.77;2.72;;;11.10;99.90;;;;;;5050845;28;20116;-77
2022/01/29 10:21:14;;;;;;;10.40;2.28;;;11.10;99.90;;;;;;5050620;28;20335;-77
2022/01/29 10:23:42;;;;;;;10.02;2.13;;;11.20;99.90;;;;;;5011352;28;20026;-77
2022/01/29 10:26:10;;;;;;;11.30;2.13;;;11.20;99.90;;;;;;5035037;28;20124;-78
2022/01/29 10:28:37;;;;;;;9.77;1.88;;;11.20;99.90;;;;;;5050728;28;20025;-76
2022/01/29 10:31:05;;;;;;;14.80;2.17;;;11.20;99.90;;;;;;5050073;28;20056;-76
2022/01/29 10:33:37;;;;;;;16.20;2.75;;;11.20;99.90;;;;;;5050647;28;20348;-76
2022/01/29 10:36:08;;;;;;;11.32;1.98;;;11.20;99.90;;;;;;5048233;28;20770;-77
2022/01/29 10:38:39;;;;;;;7.30;2.15;;;11.30;99.90;;;;;;5048606;28;20446;-76
2022/01/29 10:41:22;;;;;;;15.10;2.35;;;11.30;99.90;;;;;;5048910;28;20032;-76
2022/01/29 10:43:54;;;;;;;12.07;3.25;;;11.20;99.90;;;;;;5050178;28;20028;-76
2022/01/29 10:46:27;;;;;;;16.13;2.65;;;11.30;99.90;;;;;;5049634;28;20056;-76
2022/01/29 10:48:53;;;;;;;15.43;2.33;;;11.20;99.90;;;;;;5035585;28;20032;-76
2022/01/29 10:51:18;;;;;;;14.77;1.98;;;11.20;99.90;;;;;;5046039;28;20028;-75
2022/01/29 10:53:44;;;;;;;12.75;2.72;;;11.20;99.90;;;;;;5035718;28;20390;-76
2022/01/29 10:56:09;;;;;;;16.27;2.35;;;11.20;99.90;;;;;;5038495;28;20039;-75
2022/01/29 10:58:43;;;;;;;11.93;2.45;;;11.10;99.90;;;;;;5042279;28;20048;-75
2022/01/29 11:01:18;;;;;;;18.83;2.72;;;11.20;99.90;;;;;;5048222;28;20111;-76
2022/01/29 11:03:44;;;;;;;15.15;2.85;;;11.10;99.90;;;;;;5048785;28;20090;-74
2022/01/29 11:06:13;;;;;;;11.38;2.28;;;11.10;99.90;;;;;;5047432;28;20504;-74
2022/01/29 11:08:40;;;;;;;14.38;2.65;;;11.10;99.90;;;;;;5047548;28;20021;-74
2022/01/29 11:11:07;;;;;;;15.10;2.40;;;11.10;99.90;;;;;;5038665;28;20421;-74
2022/01/29 11:13:34;;;;;;;17.10;3.63;;;11.10;99.90;;;;;;5041115;28;20025;-75
2022/01/29 11:16:00;;;;;;;14.77;2.53;;;11.10;99.90;;;;;;5039005;28;20108;-75
2022/01/29 11:18:27;;;;;;;10.85;2.38;;;11.10;99.90;;;;;;5047851;28;20334;-75
2022/01/29 11:20:53;;;;;;;17.38;2.28;;;11.00;99.90;;;;;;5048357;28;20029;-75
2022/01/29 11:23:20;;;;;;;15.68;2.83;;;11.10;99.90;;;;;;5049170;28;20532;-74
2022/01/29 11:25:47;;;;;;;15.05;3.85;;;11.00;99.90;;;;;;5049003;28;20113;-74
2022/01/29 11:28:17;;;;;;;16.05;3.15;;;11.00;99.90;;;;;;5047336;28;20024;-74
2022/01/29 11:30:45;;;;;;;15.95;2.53;;;11.00;99.90;;;;;;5044407;28;20033;-75
2022/01/29 11:33:11;;;;;;;8.38;2.38;;;11.10;99.90;;;;;;5036864;28;20439;-74
2022/01/29 11:36:06;;;;;;;10.45;2.03;;;11.00;99.90;;;;;;5042994;28;20045;-74
2022/01/29 11:38:33;;;;;;;12.27;2.42;;;11.10;99.90;;;;;;5022788;28;20029;-76
2022/01/29 11:41:03;;;;;;;13.38;2.88;;;11.10;99.90;;;;;;5050777;28;20397;-75
2022/01/29 11:43:34;;;;;;;19.02;3.65;;;11.20;99.90;;;;;;5052962;28;20083;-74
2022/01/29 11:46:20;;;;;;;12.50;2.13;;;11.20;99.90;;;;;;5053360;28;20447;-74
2022/01/29 11:48:55;;;;;;;11.90;2.35;;;11.20;99.90;;;;;;5052652;28;20112;-75
2022/01/29 11:51:43;;;;;;;14.25;2.35;;;11.30;99.90;;;;;;5052588;28;20108;-75
2022/01/29 11:54:10;;;;;;;14.73;2.70;;;11.30;99.90;;;;;;5052585;28;20017;-75
2022/01/29 11:56:41;;;;;;;9.85;2.65;;;11.30;99.90;;;;;;5052852;28;20192;-75
2022/01/29 11:59:19;;;;;;;15.82;2.80;;;11.40;99.90;;;;;;5052188;28;20512;-76
2022/01/29 12:01:49;;;;;;;15.45;2.40;;;11.40;99.90;;;;;;5052955;28;20060;-76
2022/01/29 12:04:19;;;;;;;14.68;2.58;;;11.30;99.90;;;;;;5052099;28;20375;-76
2022/01/29 12:07:03;;;;;;;13.93;2.80;;;11.40;99.90;;;;;;5051874;28;20408;-76
2022/01/29 12:09:33;;;;;;;12.05;2.30;;;11.40;99.90;;;;;;5036595;28;20040;-75
2022/01/29 12:12:22;;;;;;;16.63;2.75;;;11.40;99.90;;;;;;5033180;28;20017;-77
2022/01/29 12:14:52;;;;;;;16.98;2.90;;;11.50;99.90;;;;;;5032499;28;20479;-77
2022/01/29 12:17:57;;;;;;;17.75;3.00;;;11.50;99.90;;;;;;5026411;28;20841;-77
2022/01/29 12:20:25;;;;;;;15.82;3.42;;;11.60;99.90;;;;;;5028007;28;20040;-76
2022/01/29 12:22:57;;;;;;;14.95;2.90;;;11.50;99.90;;;;;;5027518;28;20033;-77
2022/01/29 12:25:27;;;;;;;24.63;3.30;;;11.50;99.90;;;;;;5023975;28;20021;-76
2022/01/29 12:27:58;;;;;;;16.60;2.95;;;11.60;99.90;;;;;;5022755;28;20419;-77
2022/01/29 12:30:33;;;;;;;20.02;2.97;;;11.60;99.90;;;;;;5019306;28;20040;-77
2022/01/29 12:32:59;;;;;;;;;;;11.60;99.90;;;;;;5013729;28;20033;-76
2022/01/29 12:36:05;;;;;;;13.65;2.88;;;11.50;99.90;;;;;;4994442;28;19913;-77
2022/01/29 12:38:40;;;;;;;16.13;2.63;;;11.50;99.90;;;;;;4997531;28;20061;-76
2022/01/29 12:41:24;;;;;;;17.23;3.08;;;11.50;99.90;;;;;;5024168;28;20454;-76
2022/01/29 12:44:04;;;;;;;17.48;2.92;;;11.50;99.90;;;;;;5025011;28;20061;-77
2022/01/29 12:46:31;;;;;;;16.08;2.65;;;11.60;99.90;;;;;;5034163;28;20029;-77
2022/01/29 12:49:07;;;;;;;15.85;2.83;;;11.60;99.90;;;;;;5033506;28;20160;-77
2022/01/29 12:51:56;;;;;;;18.58;2.72;;;11.70;99.90;;;;;;5031722;28;20501;-75
2022/01/29 12:54:27;;;;;;;14.05;3.63;;;11.70;99.90;;;;;;5031642;28;20035;-75
2022/01/29 12:56:55;;;;;;;21.42;3.42;;;11.70;99.90;;;;;;5031630;28;20026;-76
2022/01/29 12:59:21;;;;;;;14.15;2.88;;;11.70;99.90;;;;;;5031126;28;20037;-76